Bass River, Massachusetts
Current Conditions -  °F | °C
As of 5:56 PM on Friday 31 Oct 2014 (Local Time) from KHYA Reporting Station
Overcast Overcast  
Wind Chill: 52°   Ceiling: 5000
Heat Index: 52°   Visibility: 10mi
Dew Point: 42°   Wind: 8mph
Humidity: 69%   Direction: 60°ENE
Pressure: 29.95"   Gusts: NA
Location:  41.6739°N, 70.1961°W
Report Text: KHYA 312156Z 06007KT 10SM OVC050 11/06 A2995 RMK AO2 SLP144 T01110056
Loading
Personal Weather Stations






























Interactive Weather Map
Tropical Storm Tracking
New forecast layout! Learn more

10-Day Weather Forecast

Advertisements
Track Severe Weather on mobile